Details From YBRM - Broome Intl
To AYPY - Port Moresby Jacksons Intl
Flight Number -
Tags Generated
Created
Modified
Stats Distance 1,544 nm / 2,859 km
Max Altitude 0 ft / 0 m
Waypoints 3
Social Downloads 0
Likes 0
Share VATSIM

Download

Looking for another format? Having issues loading an existing format? Contact us
Advertisement - Login to hide

Notes

Generated

Route

YBRM R1794 AYPY

ID Type Via Altitude Latitude Longitude Leg Dist Tot Dist Heading (true) Name
O YBRM APT - 0 ft / 0 m -17.94581˚ 122.21626˚ - 0 nm - -
R1794 FIX - 0 ft / 0 m -9.43087˚ 147.21390˚ 1543 nm 1543 nm 74° / 68° -
O AYPY APT - 0 ft / 0 m -9.43471˚ 147.21302˚ 0 nm 1543 nm 193° / 193° -

Altitude Profile

Advertisement - Login to hide

Weather


0- 5 10 15 20 25 30 35+ Temperature / ° C

Clouds and Precipitation
Forecast for 2018-05-21 18:00 UTC. Updated 2 hours ago

Ground ~20,000 ft ~40,000 ft Winds

YBRM

Details ICAO YBRM
Name Broome Intl
Region Australia
Timezone Australia/Perth (UTC+8.0)
Stats Elevation 56 ft / 17 m (AMSL)
Location -17.948745° 122.227225°
Runways 1
Magnetic Variation 1.767° E

METAR

YBRM 211700Z AUTO 12005KT 9999 // NCD 20/10 Q1015 RF00.0/000.0

Decode

TAF

TAF AMD YBRM 211220Z 2112/2212 10014KT CAVOK FM220100 09017G27KT CAVOK FM220400 10014KT CAVOK

Decode

Departure Runways

ID Width Length Bearing (true) Bearing (mag) Surface Threshold Offset Overrun Length
10 148 ft / 45 m 8,325 ft / 2,537 m 105.60° 103.83° Asphalt 292 ft / 89 m 52 ft / 16 m
28 148 ft / 45 m 8,325 ft / 2,537 m 285.60° 283.83° Asphalt 666 ft / 203 m 0 ft / 0 m

AYPY

Details ICAO AYPY (POM)
Name Port Moresby Jacksons Intl
Region Papua New Guinea
Timezone Pacific/Port_Moresby (UTC+10.0)
Stats Elevation 146 ft / 45 m (AMSL)
Location -9.442079° 147.219200°
Runways 2
Magnetic Variation 5.885° E

METAR

Not found

TAF

TAF AYPY 210305Z 2106/2206 17008KT 9999 FEW020 SCT040 FM211000 17006KT 9999 BKN035

Decode

Destination Runways

ID Width Length Bearing (true) Bearing (mag) Surface Threshold Offset Overrun Length
14L 148 ft / 45 m 9,077 ft / 2,767 m 148.61° 142.73° Asphalt 0 ft / 0 m 200 ft / 61 m
14R 148 ft / 45 m 6,802 ft / 2,073 m 148.65° 142.77° Asphalt 0 ft / 0 m 0 ft / 0 m
32L 148 ft / 45 m 6,802 ft / 2,073 m 328.65° 322.77° Asphalt 0 ft / 0 m 0 ft / 0 m
32R 148 ft / 45 m 9,077 ft / 2,767 m 328.61° 322.73° Asphalt 0 ft / 0 m 200 ft / 61 m

Approach Navaids

Runway Type Ident Frequency Range Bearing (true) Bearing (mag) Slope Elevation
14L Localiser IWG 110.10 MHz 18 nm / 33 km 148.64° 142.75° - 128 ft / 39 m (AMSL)
14L Glidescope IWG 110.10 MHz 10 nm / 19 km 148.61° 142.73° 3.02° 128 ft / 39 m (AMSL)
14L DME IWG 110.10 MHz 18 nm / 33 km - - - 128 ft / 39 m (AMSL)
32R Localiser IBB 109.50 MHz 18 nm / 33 km 328.63° 322.74° - 103 ft / 31 m (AMSL)
32R Glidescope IBB 109.50 MHz 10 nm / 19 km 328.61° 322.73° 3.00° 103 ft / 31 m (AMSL)
32R DME IBB 109.50 MHz 18 nm / 33 km - - - 103 ft / 31 m (AMSL)

Popular Alternatives